createdAt,value
2023-02-18T00:01:22.166Z,12.10
2023-02-18T00:03:49.413Z,12.10
2023-02-18T00:06:17.784Z,12.20
2023-02-18T00:08:45.607Z,12.20
2023-02-18T00:11:13.498Z,12.10
2023-02-18T00:13:40.505Z,12.10
2023-02-18T00:16:10.893Z,12.00
2023-02-18T00:18:38.689Z,12.10
2023-02-18T00:21:07.196Z,12.00
2023-02-18T00:23:34.295Z,12.00
2023-02-18T00:26:14.539Z,12.00
2023-02-18T00:28:41.595Z,12.00
2023-02-18T00:31:20.801Z,12.00
2023-02-18T00:33:47.709Z,12.00
2023-02-18T00:36:17.137Z,12.00
2023-02-18T00:38:52.508Z,12.00
2023-02-18T00:41:20.613Z,11.90
2023-02-18T00:43:47.752Z,12.00
2023-02-18T00:46:15.062Z,12.00
2023-02-18T00:48:42.014Z,12.00
2023-02-18T00:51:09.438Z,12.10
2023-02-18T00:53:37.281Z,12.00
2023-02-18T00:56:04.978Z,12.00
2023-02-18T00:58:31.887Z,12.10
2023-02-18T01:00:58.636Z,12.10
2023-02-18T01:03:25.718Z,12.10
2023-02-18T01:05:52.641Z,12.10
2023-02-18T01:08:20.848Z,12.10
2023-02-18T01:10:49.716Z,12.10
2023-02-18T01:13:16.897Z,12.10
2023-02-18T01:15:44.146Z,12.10
2023-02-18T01:18:11.328Z,12.20
2023-02-18T01:20:39.772Z,12.10
2023-02-18T01:23:06.796Z,12.20
2023-02-18T01:25:34.409Z,12.20
2023-02-18T01:28:01.480Z,12.10
2023-02-18T01:30:28.837Z,12.10
2023-02-18T01:32:57.355Z,12.20
2023-02-18T01:35:24.518Z,12.10
2023-02-18T01:37:51.457Z,12.20
2023-02-18T01:40:24.913Z,12.20
2023-02-18T01:42:52.152Z,12.10
2023-02-18T01:45:34.307Z,12.10
2023-02-18T01:48:21.098Z,12.10
2023-02-18T01:50:53.331Z,12.10
2023-02-18T01:53:31.220Z,12.10
2023-02-18T01:56:00.541Z,12.10
2023-02-18T01:58:27.558Z,12.10
2023-02-18T02:00:54.517Z,12.00
2023-02-18T02:03:21.531Z,12.00
2023-02-18T02:05:48.276Z,12.00
2023-02-18T02:08:15.113Z,12.00
2023-02-18T02:11:16.729Z,12.00
2023-02-18T02:14:08.767Z,12.00
2023-02-18T02:16:46.384Z,12.00
2023-02-18T02:19:40.829Z,12.00
2023-02-18T02:22:18.164Z,11.90
2023-02-18T02:25:09.593Z,11.90
2023-02-18T02:27:45.188Z,11.90
2023-02-18T02:30:29.363Z,12.00
2023-02-18T02:33:08.068Z,12.00
2023-02-18T02:35:40.896Z,12.00
2023-02-18T02:38:25.522Z,12.00
2023-02-18T02:40:56.920Z,11.90
2023-02-18T02:43:43.596Z,12.00
2023-02-18T02:46:30.504Z,12.00
2023-02-18T02:49:05.820Z,12.00
2023-02-18T02:51:46.815Z,12.00
2023-02-18T02:54:25.991Z,12.00
2023-02-18T02:57:08.942Z,12.00
2023-02-18T02:59:40.449Z,12.00
2023-02-18T03:02:18.927Z,12.00
2023-02-18T03:05:21.720Z,12.00
2023-02-18T03:08:03.128Z,12.00
2023-02-18T03:10:53.903Z,12.00
2023-02-18T03:13:39.356Z,12.10
2023-02-18T03:16:27.759Z,12.00
2023-02-18T03:19:11.565Z,12.00
2023-02-18T03:21:55.844Z,12.00
2023-02-18T03:24:37.708Z,12.00
2023-02-18T03:27:32.218Z,12.00
2023-02-18T03:30:04.788Z,12.00
2023-02-18T03:32:34.269Z,11.90
2023-02-18T03:35:06.129Z,11.90
2023-02-18T03:37:35.887Z,11.90
2023-02-18T03:40:03.245Z,11.90
2023-02-18T03:42:30.261Z,11.90
2023-02-18T03:44:57.043Z,11.90
2023-02-18T03:47:25.070Z,11.80
2023-02-18T03:49:51.795Z,11.90
2023-02-18T03:52:19.644Z,11.90
2023-02-18T03:54:46.353Z,11.90
2023-02-18T03:57:13.089Z,11.80
2023-02-18T03:59:39.736Z,11.70
2023-02-18T04:02:06.426Z,11.70
2023-02-18T04:04:33.343Z,11.70
2023-02-18T04:07:00.118Z,11.70
2023-02-18T04:09:27.025Z,11.70
2023-02-18T04:11:53.712Z,11.70
2023-02-18T04:14:20.441Z,11.70
2023-02-18T04:16:47.104Z,11.70
2023-02-18T04:19:13.970Z,11.70
2023-02-18T04:21:40.717Z,11.70
2023-02-18T04:24:07.500Z,11.80
2023-02-18T04:26:34.301Z,11.80
2023-02-18T04:29:00.994Z,11.80
2023-02-18T04:31:27.924Z,11.80
2023-02-18T04:33:54.649Z,11.80
2023-02-18T04:36:21.407Z,11.80
2023-02-18T04:38:48.130Z,11.80
2023-02-18T04:41:14.823Z,11.80
2023-02-18T04:43:41.627Z,11.80
2023-02-18T04:46:08.660Z,11.80
2023-02-18T04:48:35.580Z,11.80
2023-02-18T04:51:02.740Z,11.80
2023-02-18T04:53:29.584Z,11.80
2023-02-18T04:55:56.371Z,11.90
2023-02-18T04:58:23.206Z,11.90
2023-02-18T05:00:49.874Z,11.90
2023-02-18T05:03:16.864Z,11.90
2023-02-18T05:05:43.661Z,11.80
2023-02-18T05:08:10.388Z,11.80
2023-02-18T05:10:38.364Z,11.80
2023-02-18T05:13:05.402Z,11.70
2023-02-18T05:15:32.191Z,11.70
2023-02-18T05:17:58.949Z,11.60
2023-02-18T05:20:25.687Z,11.60
2023-02-18T05:22:52.345Z,11.50
2023-02-18T05:25:19.140Z,11.50
2023-02-18T05:27:45.966Z,11.50
2023-02-18T05:30:13.183Z,11.40
2023-02-18T05:32:40.007Z,11.40
2023-02-18T05:35:07.377Z,11.40
2023-02-18T05:37:34.223Z,11.40
2023-02-18T05:40:01.014Z,11.40
2023-02-18T05:42:27.746Z,11.40
2023-02-18T05:44:54.538Z,11.30
2023-02-18T05:47:21.276Z,11.30
2023-02-18T05:49:47.987Z,11.40
2023-02-18T05:52:14.656Z,11.40
2023-02-18T05:54:41.399Z,11.40
2023-02-18T05:57:08.240Z,11.40
2023-02-18T05:59:35.064Z,11.30
2023-02-18T06:02:01.832Z,11.40
2023-02-18T06:04:28.744Z,11.40
2023-02-18T06:06:55.480Z,11.40
2023-02-18T06:09:22.904Z,11.40
2023-02-18T06:11:49.651Z,11.40
2023-02-18T06:14:16.518Z,11.40
2023-02-18T06:16:43.312Z,11.40
2023-02-18T06:19:10.037Z,11.40
2023-02-18T06:21:36.795Z,11.40
2023-02-18T06:24:03.749Z,11.40
2023-02-18T06:26:31.031Z,11.40
2023-02-18T06:28:57.726Z,11.40
2023-02-18T06:31:24.690Z,11.30
2023-02-18T06:33:51.571Z,11.30
2023-02-18T06:36:18.388Z,11.40
2023-02-18T06:38:45.788Z,11.40
2023-02-18T06:41:14.303Z,11.40
2023-02-18T06:43:41.511Z,11.40
2023-02-18T06:46:08.971Z,11.40
2023-02-18T06:48:35.921Z,11.50
2023-02-18T06:51:03.605Z,11.50
2023-02-18T06:53:30.494Z,11.60
2023-02-18T06:55:57.932Z,11.60
2023-02-18T06:58:24.987Z,11.70
2023-02-18T07:00:51.716Z,11.60
2023-02-18T07:03:18.615Z,11.60
2023-02-18T07:05:45.655Z,11.70
2023-02-18T07:08:12.931Z,11.70
2023-02-18T07:10:39.783Z,11.70
2023-02-18T07:13:06.576Z,11.70
2023-02-18T07:15:33.357Z,11.70
2023-02-18T07:18:00.681Z,11.70
2023-02-18T07:20:28.310Z,11.70
2023-02-18T07:22:55.421Z,11.80
2023-02-18T07:25:23.454Z,11.80
2023-02-18T07:27:50.789Z,11.80
2023-02-18T07:30:18.556Z,11.80
2023-02-18T07:32:45.357Z,11.80
2023-02-18T07:35:15.328Z,11.80
2023-02-18T07:37:46.442Z,11.90
2023-02-18T07:40:15.665Z,11.90
2023-02-18T07:42:42.463Z,11.90
2023-02-18T07:45:10.127Z,11.90
2023-02-18T07:47:37.100Z,11.90
2023-02-18T07:50:04.645Z,12.00
2023-02-18T07:52:31.482Z,12.00
2023-02-18T07:54:58.154Z,12.00
2023-02-18T07:57:24.884Z,11.90
2023-02-18T07:59:51.570Z,11.80
2023-02-18T08:02:24.627Z,11.70
2023-02-18T08:04:51.471Z,11.60
2023-02-18T08:07:20.536Z,11.60
2023-02-18T08:09:49.184Z,11.50
2023-02-18T08:12:16.053Z,11.40
2023-02-18T08:14:43.009Z,11.30
2023-02-18T08:17:09.671Z,11.30
2023-02-18T08:19:36.431Z,11.10
2023-02-18T08:22:03.600Z,11.10
2023-02-18T08:24:30.496Z,11.10
2023-02-18T08:27:01.255Z,11.10
2023-02-18T08:29:28.710Z,11.10
2023-02-18T08:31:57.373Z,11.10
2023-02-18T08:34:24.300Z,11.10
2023-02-18T08:36:51.067Z,11.10
2023-02-18T08:39:18.938Z,11.20
2023-02-18T08:41:45.781Z,11.10
2023-02-18T08:44:12.570Z,11.10
2023-02-18T08:46:39.292Z,11.10
2023-02-18T08:49:06.640Z,11.10
2023-02-18T08:51:33.617Z,11.10
2023-02-18T08:54:00.516Z,11.10
2023-02-18T08:56:27.342Z,11.10
2023-02-18T08:58:54.244Z,11.10
2023-02-18T09:01:21.068Z,11.10
2023-02-18T09:03:48.680Z,11.20
2023-02-18T09:06:15.703Z,11.30
2023-02-18T09:08:42.377Z,11.20
2023-02-18T09:11:11.150Z,11.20
2023-02-18T09:13:38.683Z,11.20
2023-02-18T09:16:13.377Z,11.20
2023-02-18T09:18:41.030Z,11.20
2023-02-18T09:21:09.740Z,11.20
2023-02-18T09:23:36.863Z,11.30
2023-02-18T09:26:11.072Z,11.30
2023-02-18T09:28:37.806Z,11.30
2023-02-18T09:31:11.271Z,11.40
2023-02-18T09:33:45.887Z,11.30
2023-02-18T09:36:13.404Z,11.40
2023-02-18T09:38:40.179Z,11.50
2023-02-18T09:41:11.000Z,11.50
2023-02-18T09:43:43.998Z,11.50
2023-02-18T09:46:24.475Z,11.50
2023-02-18T09:48:51.936Z,11.50
2023-02-18T09:51:19.519Z,11.50
2023-02-18T09:53:47.017Z,11.60
2023-02-18T09:56:18.575Z,11.50
2023-02-18T09:58:47.544Z,11.50
2023-02-18T10:01:14.228Z,11.50
2023-02-18T10:03:41.529Z,11.60
2023-02-18T10:06:24.104Z,11.60
2023-02-18T10:08:54.327Z,11.60
2023-02-18T10:11:50.192Z,11.60
2023-02-18T10:14:17.255Z,11.60
2023-02-18T10:16:45.123Z,11.50
2023-02-18T10:19:21.237Z,11.50
2023-02-18T10:21:49.711Z,11.60
2023-02-18T10:24:27.874Z,11.70
2023-02-18T10:26:55.654Z,11.70
2023-02-18T10:29:23.610Z,11.70
2023-02-18T10:31:57.317Z,11.80
2023-02-18T10:35:00.431Z,11.90
2023-02-18T10:37:48.075Z,11.90
2023-02-18T10:40:33.658Z,11.80
2023-02-18T10:43:19.175Z,11.80
2023-02-18T10:46:23.951Z,11.70
2023-02-18T10:49:27.091Z,11.70
2023-02-18T10:51:57.938Z,11.80
2023-02-18T10:54:26.920Z,11.70
2023-02-18T10:56:59.753Z,11.70
2023-02-18T10:59:32.366Z,11.70
2023-02-18T11:02:05.756Z,11.80
2023-02-18T11:04:39.766Z,11.70
2023-02-18T11:07:13.228Z,11.70
2023-02-18T11:09:56.713Z,11.60
2023-02-18T11:12:43.255Z,11.40
2023-02-18T11:15:16.417Z,11.30
2023-02-18T11:17:48.072Z,11.20
2023-02-18T11:20:36.202Z,11.20
2023-02-18T11:23:18.570Z,11.20
2023-02-18T11:25:59.174Z,11.20
2023-02-18T11:28:49.260Z,11.20
2023-02-18T11:31:25.423Z,11.30
2023-02-18T11:33:59.444Z,11.40
2023-02-18T11:36:31.074Z,11.40
2023-02-18T11:39:04.307Z,11.40
2023-02-18T11:41:42.839Z,11.40
2023-02-18T11:44:27.947Z,11.20
2023-02-18T11:47:02.945Z,11.20
2023-02-18T11:49:31.366Z,11.20
2023-02-18T11:52:26.582Z,11.10
2023-02-18T11:55:01.799Z,11.10
2023-02-18T11:57:29.460Z,11.10
2023-02-18T11:59:59.760Z,11.00
2023-02-18T12:02:38.240Z,11.00
2023-02-18T12:05:11.702Z,11.00
2023-02-18T12:07:55.441Z,10.90
2023-02-18T12:10:33.190Z,10.90
2023-02-18T12:13:06.135Z,10.90
2023-02-18T12:15:47.077Z,11.00
2023-02-18T12:18:27.938Z,11.00
2023-02-18T12:21:19.797Z,11.10
2023-02-18T12:24:05.343Z,11.10
2023-02-18T12:26:58.663Z,11.10
2023-02-18T12:29:37.629Z,11.00
2023-02-18T12:32:13.790Z,11.00
2023-02-18T12:35:01.609Z,11.00
2023-02-18T12:37:51.796Z,11.10
2023-02-18T12:40:57.298Z,11.10
2023-02-18T12:44:00.805Z,11.00
2023-02-18T12:46:36.576Z,11.00
2023-02-18T12:49:06.015Z,11.00
2023-02-18T12:51:44.389Z,11.00
2023-02-18T12:54:11.022Z,11.00
2023-02-18T12:57:05.768Z,11.10
2023-02-18T12:59:44.220Z,11.10
2023-02-18T13:02:41.786Z,11.20
2023-02-18T13:05:26.614Z,11.30
2023-02-18T13:08:15.287Z,11.30
2023-02-18T13:11:18.270Z,11.30
2023-02-18T13:14:00.069Z,11.30
2023-02-18T13:16:27.905Z,11.30
2023-02-18T13:19:18.498Z,11.40
2023-02-18T13:21:48.093Z,11.30
2023-02-18T13:24:26.887Z,11.30
2023-02-18T13:27:06.483Z,11.30
2023-02-18T13:29:42.854Z,11.20
2023-02-18T13:32:27.766Z,11.30
2023-02-18T13:35:07.444Z,11.20
2023-02-18T13:37:49.561Z,11.20
2023-02-18T13:40:21.294Z,11.30
2023-02-18T13:42:52.158Z,11.30
2023-02-18T13:45:30.889Z,11.20
2023-02-18T13:47:59.230Z,11.30
2023-02-18T13:50:31.925Z,11.40
2023-02-18T13:53:07.807Z,11.40
2023-02-18T13:55:55.972Z,11.50
2023-02-18T13:58:48.626Z,11.50
2023-02-18T14:01:24.411Z,11.40
2023-02-18T14:03:57.363Z,11.40
2023-02-18T14:06:27.992Z,11.30
2023-02-18T14:09:14.946Z,11.30
2023-02-18T14:12:15.193Z,11.30
2023-02-18T14:14:42.129Z,11.30
2023-02-18T14:17:20.950Z,11.30
2023-02-18T14:19:59.847Z,11.30
2023-02-18T14:22:34.001Z,11.30
2023-02-18T14:25:04.934Z,11.20
2023-02-18T14:27:31.620Z,11.20
2023-02-18T14:30:15.986Z,11.30
2023-02-18T14:32:45.028Z,11.30
2023-02-18T14:35:49.009Z,11.30
2023-02-18T14:38:15.668Z,11.30
2023-02-18T14:40:56.456Z,11.40
2023-02-18T14:43:28.830Z,11.40
2023-02-18T14:46:13.575Z,11.40
2023-02-18T14:49:28.612Z,11.40
2023-02-18T14:51:57.866Z,11.30
2023-02-18T14:54:26.896Z,11.40
2023-02-18T14:57:00.573Z,11.30
2023-02-18T14:59:31.493Z,11.30
2023-02-18T15:01:58.313Z,11.40
2023-02-18T15:04:26.580Z,11.40
2023-02-18T15:07:02.118Z,11.40
2023-02-18T15:09:29.583Z,11.50
2023-02-18T15:12:08.588Z,11.50
2023-02-18T15:14:40.076Z,11.50
2023-02-18T15:17:11.926Z,11.50
2023-02-18T15:19:47.574Z,11.40
2023-02-18T15:22:23.519Z,11.50
2023-02-18T15:24:52.413Z,11.40
2023-02-18T15:27:28.669Z,11.40
2023-02-18T15:30:15.302Z,11.40
2023-02-18T15:32:49.958Z,11.50
2023-02-18T15:35:19.787Z,11.40
2023-02-18T15:37:51.970Z,11.50
2023-02-18T15:40:19.469Z,11.50
2023-02-18T15:42:52.897Z,11.60
2023-02-18T15:45:31.071Z,11.60
2023-02-18T15:47:59.665Z,11.60
2023-02-18T15:50:38.424Z,11.60
2023-02-18T15:53:15.014Z,11.60
2023-02-18T15:55:45.850Z,11.60
2023-02-18T15:58:15.240Z,11.50
2023-02-18T16:00:49.793Z,11.50
2023-02-18T16:03:26.465Z,11.50
2023-02-18T16:06:28.877Z,11.50
2023-02-18T16:09:00.037Z,11.50
2023-02-18T16:11:35.552Z,11.50
2023-02-18T16:14:02.553Z,11.50
2023-02-18T16:16:33.514Z,11.50
2023-02-18T16:19:00.961Z,11.60
2023-02-18T16:21:44.839Z,11.50
2023-02-18T16:24:27.303Z,11.50
2023-02-18T16:26:57.486Z,11.50
2023-02-18T16:29:27.308Z,11.50
2023-02-18T16:31:54.150Z,11.60
2023-02-18T16:34:21.124Z,11.60
2023-02-18T16:37:06.323Z,11.50
2023-02-18T16:39:34.854Z,11.60
2023-02-18T16:42:01.706Z,11.50
2023-02-18T16:44:28.513Z,11.50
2023-02-18T16:46:56.692Z,11.50
2023-02-18T16:49:23.556Z,11.50
2023-02-18T16:51:50.255Z,11.50
2023-02-18T16:54:17.306Z,11.50
2023-02-18T16:56:44.009Z,11.50
2023-02-18T16:59:10.782Z,11.50
2023-02-18T17:01:44.798Z,11.60
2023-02-18T17:04:14.854Z,11.60
2023-02-18T17:06:42.097Z,11.60
2023-02-18T17:09:21.257Z,11.50
2023-02-18T17:11:50.606Z,11.60
2023-02-18T17:14:19.710Z,11.60
2023-02-18T17:16:52.598Z,11.60
2023-02-18T17:19:19.492Z,11.60
2023-02-18T17:21:48.611Z,11.60
2023-02-18T17:24:18.331Z,11.60
2023-02-18T17:26:45.110Z,11.60
2023-02-18T17:29:12.287Z,11.60
2023-02-18T17:31:47.015Z,11.60
2023-02-18T17:34:24.367Z,11.60
2023-02-18T17:36:51.112Z,11.70
2023-02-18T17:39:18.330Z,11.70
2023-02-18T17:41:45.240Z,11.70
2023-02-18T17:44:20.612Z,11.60
2023-02-18T17:46:49.723Z,11.70
2023-02-18T17:49:16.952Z,11.70
2023-02-18T17:51:44.144Z,11.70
2023-02-18T17:54:19.546Z,11.70
2023-02-18T17:56:46.988Z,11.70
2023-02-18T17:59:13.860Z,11.70
2023-02-18T18:01:40.991Z,11.70
2023-02-18T18:04:16.311Z,11.70
2023-02-18T18:06:43.557Z,11.70
2023-02-18T18:09:10.370Z,11.60
2023-02-18T18:11:38.211Z,11.60
2023-02-18T18:14:05.011Z,11.60
2023-02-18T18:16:31.832Z,11.50
2023-02-18T18:18:58.659Z,11.50
2023-02-18T18:21:29.878Z,11.60
2023-02-18T18:23:56.768Z,11.50
2023-02-18T18:26:23.618Z,11.50
2023-02-18T18:28:50.352Z,11.50
2023-02-18T18:31:19.210Z,11.40
2023-02-18T18:33:48.982Z,11.40
2023-02-18T18:36:17.194Z,11.50
2023-02-18T18:38:43.981Z,11.50
2023-02-18T18:41:15.900Z,11.60
2023-02-18T18:43:42.739Z,11.50
2023-02-18T18:46:09.640Z,11.50
2023-02-18T18:48:36.455Z,11.50
2023-02-18T18:51:03.806Z,11.50
2023-02-18T18:53:32.971Z,11.60
2023-02-18T18:56:06.039Z,11.60
2023-02-18T18:58:33.098Z,11.60
2023-02-18T19:01:02.423Z,11.60
2023-02-18T19:03:30.463Z,11.60
2023-02-18T19:05:57.734Z,11.60
2023-02-18T19:08:24.699Z,11.60
2023-02-18T19:10:54.506Z,11.60
2023-02-18T19:13:29.728Z,11.60
2023-02-18T19:16:21.313Z,11.60
2023-02-18T19:18:49.083Z,11.60
2023-02-18T19:21:16.888Z,11.70
2023-02-18T19:23:43.930Z,11.70
2023-02-18T19:26:11.417Z,11.70
2023-02-18T19:28:38.180Z,11.70
2023-02-18T19:31:10.286Z,11.70
2023-02-18T19:33:39.089Z,11.70
2023-02-18T19:36:10.084Z,11.70
2023-02-18T19:38:37.497Z,11.70
2023-02-18T19:41:14.966Z,11.70
2023-02-18T19:43:43.900Z,11.70
2023-02-18T19:46:13.282Z,11.70
2023-02-18T19:48:40.836Z,11.70
2023-02-18T19:51:08.659Z,11.60
2023-02-18T19:53:35.873Z,11.70
2023-02-18T19:56:07.332Z,11.70
2023-02-18T19:58:35.422Z,11.60
2023-02-18T20:01:02.214Z,11.70
2023-02-18T20:03:29.505Z,11.70
2023-02-18T20:05:56.265Z,11.70
2023-02-18T20:08:23.023Z,11.70
2023-02-18T20:10:57.506Z,11.70
2023-02-18T20:13:24.227Z,11.70
2023-02-18T20:15:51.074Z,11.70
2023-02-18T20:18:17.834Z,11.70
2023-02-18T20:20:49.087Z,11.60
2023-02-18T20:23:16.207Z,11.70
2023-02-18T20:25:42.950Z,11.70
2023-02-18T20:28:09.769Z,11.70
2023-02-18T20:30:36.619Z,11.60
2023-02-18T20:33:03.406Z,11.60
2023-02-18T20:35:30.239Z,11.60
2023-02-18T20:37:56.911Z,11.60
2023-02-18T20:40:23.632Z,11.60
2023-02-18T20:42:50.416Z,11.60
2023-02-18T20:45:18.016Z,11.60
2023-02-18T20:47:44.789Z,11.60
2023-02-18T20:50:11.516Z,11.50
2023-02-18T20:52:38.226Z,11.60
2023-02-18T20:55:05.155Z,11.60
2023-02-18T20:57:31.844Z,11.60
2023-02-18T20:59:58.718Z,11.60
2023-02-18T21:02:25.607Z,11.70
2023-02-18T21:04:52.313Z,11.60
2023-02-18T21:07:19.050Z,11.70
2023-02-18T21:09:45.769Z,11.70
2023-02-18T21:12:12.488Z,11.70
2023-02-18T21:14:39.263Z,11.70
2023-02-18T21:17:07.341Z,11.70
2023-02-18T21:19:35.274Z,11.70
2023-02-18T21:22:02.032Z,11.70
2023-02-18T21:24:28.927Z,11.60
2023-02-18T21:26:55.651Z,11.70
2023-02-18T21:29:22.463Z,11.70
2023-02-18T21:31:49.343Z,11.70
2023-02-18T21:34:17.623Z,11.70
2023-02-18T21:36:44.708Z,11.80
2023-02-18T21:39:11.691Z,11.80
2023-02-18T21:41:40.687Z,11.80
2023-02-18T21:44:08.259Z,11.80
2023-02-18T21:46:36.742Z,11.70
2023-02-18T21:49:12.420Z,11.70
2023-02-18T21:52:08.467Z,11.60
2023-02-18T21:54:44.833Z,11.70
2023-02-18T21:57:17.881Z,11.70
2023-02-18T21:59:47.609Z,11.60
2023-02-18T22:02:22.929Z,11.60
2023-02-18T22:04:50.865Z,11.60
2023-02-18T22:07:19.024Z,11.50
2023-02-18T22:09:48.380Z,11.60
2023-02-18T22:12:15.881Z,11.60
2023-02-18T22:14:43.415Z,11.60
2023-02-18T22:17:10.467Z,11.60
2023-02-18T22:19:39.493Z,11.60
2023-02-18T22:22:06.205Z,11.50
2023-02-18T22:24:33.493Z,11.40
2023-02-18T22:27:03.266Z,11.40
2023-02-18T22:29:31.484Z,11.40
2023-02-18T22:31:58.396Z,11.40
2023-02-18T22:34:26.517Z,11.40
2023-02-18T22:36:53.183Z,11.40
2023-02-18T22:39:20.101Z,11.40
2023-02-18T22:41:47.171Z,11.30
2023-02-18T22:44:16.150Z,11.30
2023-02-18T22:46:43.330Z,11.30
2023-02-18T22:49:11.450Z,11.30
2023-02-18T22:51:40.807Z,11.20
2023-02-18T22:54:12.106Z,11.30
2023-02-18T22:56:38.855Z,11.30
2023-02-18T22:59:05.727Z,11.20
2023-02-18T23:01:36.060Z,11.30
2023-02-18T23:04:11.432Z,11.20
2023-02-18T23:06:40.148Z,11.30
2023-02-18T23:09:09.200Z,11.30
2023-02-18T23:11:36.085Z,11.30
2023-02-18T23:14:18.162Z,11.30
2023-02-18T23:17:17.786Z,11.30
2023-02-18T23:19:44.693Z,11.30
2023-02-18T23:22:13.454Z,11.30
2023-02-18T23:24:43.685Z,11.30
2023-02-18T23:27:13.003Z,11.20
2023-02-18T23:29:40.328Z,11.20
2023-02-18T23:32:08.055Z,11.20
2023-02-18T23:34:35.059Z,11.10
2023-02-18T23:37:01.872Z,11.20
2023-02-18T23:39:29.559Z,11.20
2023-02-18T23:41:56.891Z,11.20
2023-02-18T23:44:25.763Z,11.20
2023-02-18T23:46:52.850Z,11.20
2023-02-18T23:49:24.875Z,11.20
2023-02-18T23:51:53.433Z,11.20
2023-02-18T23:54:21.394Z,11.20
2023-02-18T23:56:48.255Z,11.20
2023-02-18T23:59:15.374Z,11.20
